createdAt,value
2018-06-22T00:02:16.638Z,24.33
2018-06-22T00:04:57.195Z,24.21
2018-06-22T00:13:22.510Z,23.76
2018-06-22T00:16:08.597Z,23.64
2018-06-22T00:18:54.106Z,23.57
2018-06-22T00:21:30.343Z,23.66
2018-06-22T00:24:06.347Z,23.72
2018-06-22T00:26:53.571Z,23.65
2018-06-22T00:29:36.554Z,23.70
2018-06-22T00:35:10.912Z,23.46
2018-06-22T00:37:40.714Z,23.47
2018-06-22T00:40:10.532Z,23.55
2018-06-22T00:42:40.281Z,23.55
2018-06-22T00:45:09.923Z,23.56
2018-06-22T00:47:39.735Z,23.73
2018-06-22T00:50:09.422Z,23.98
2018-06-22T00:52:39.258Z,23.88
2018-06-22T00:55:08.949Z,23.82
2018-06-22T00:57:38.563Z,24.15
2018-06-22T01:00:08.321Z,24.29
2018-06-22T01:02:38.424Z,24.05
2018-06-22T01:05:08.259Z,23.87
2018-06-22T01:07:37.939Z,24.01
2018-06-22T01:10:07.720Z,24.08
2018-06-22T01:12:37.529Z,24.06
2018-06-22T01:15:07.656Z,24.00
2018-06-22T01:17:37.416Z,23.93
2018-06-22T01:20:07.111Z,23.68
2018-06-22T01:22:36.814Z,23.55
2018-06-22T01:25:06.506Z,23.43
2018-06-22T01:27:36.238Z,23.57
2018-06-22T01:30:06.176Z,23.60
2018-06-22T01:32:36.034Z,23.75
2018-06-22T01:35:05.761Z,23.92
2018-06-22T01:37:36.345Z,23.93
2018-06-22T01:40:06.040Z,23.85
2018-06-22T01:42:35.793Z,24.06
2018-06-22T01:45:05.500Z,23.97
2018-06-22T01:47:35.192Z,24.06
2018-06-22T01:50:04.797Z,24.03
2018-06-22T01:52:34.583Z,24.06
2018-06-22T01:55:04.407Z,24.38
2018-06-22T01:57:34.158Z,24.20
2018-06-22T02:00:03.854Z,24.02
2018-06-22T02:02:33.623Z,23.95
2018-06-22T02:05:03.361Z,23.98
2018-06-22T02:07:33.011Z,24.12
2018-06-22T02:10:02.669Z,23.99
2018-06-22T02:12:32.402Z,23.93
2018-06-22T02:15:02.890Z,23.95
2018-06-22T02:17:32.967Z,23.99
2018-06-22T02:20:02.711Z,24.01
2018-06-22T02:22:32.399Z,23.84
2018-06-22T02:25:02.040Z,23.77
2018-06-22T02:27:31.851Z,23.68
2018-06-22T02:30:01.624Z,23.40
2018-06-22T02:32:31.354Z,23.34
2018-06-22T02:35:01.090Z,23.42
2018-06-22T02:37:30.951Z,23.35
2018-06-22T02:40:01.035Z,23.38
2018-06-22T02:42:31.065Z,23.41
2018-06-22T02:45:01.163Z,23.44
2018-06-22T02:47:31.372Z,23.32
2018-06-22T02:50:01.744Z,23.24
2018-06-22T02:52:31.442Z,23.25
2018-06-22T02:55:02.028Z,23.35
2018-06-22T02:57:31.786Z,23.38
2018-06-22T03:00:01.548Z,23.43
2018-06-22T03:02:31.168Z,23.38
2018-06-22T03:05:00.840Z,23.38
2018-06-22T03:07:30.790Z,23.33
2018-06-22T03:10:03.487Z,23.36
2018-06-22T03:12:33.086Z,23.21
2018-06-22T03:15:03.425Z,23.12
2018-06-22T03:17:33.759Z,23.11
2018-06-22T03:20:03.595Z,23.12
2018-06-22T03:22:39.871Z,22.68
2018-06-22T03:25:10.796Z,22.61
2018-06-22T03:27:40.627Z,22.78
2018-06-22T03:30:13.713Z,22.57
2018-06-22T03:32:44.098Z,22.52
2018-06-22T03:35:16.962Z,22.40
2018-06-22T03:37:47.597Z,22.54
2018-06-22T03:40:20.027Z,22.50
2018-06-22T03:42:51.738Z,22.74
2018-06-22T03:45:21.879Z,22.88
2018-06-22T03:47:51.831Z,22.80
2018-06-22T03:50:22.049Z,22.49
2018-06-22T03:52:53.222Z,22.54
2018-06-22T03:55:26.798Z,22.58
2018-06-22T03:57:57.478Z,22.54
2018-06-22T04:00:27.663Z,22.65
2018-06-22T04:02:58.608Z,22.37
2018-06-22T04:05:29.891Z,22.07
2018-06-22T04:08:00.102Z,21.87
2018-06-22T04:10:33.281Z,21.88
2018-06-22T04:13:06.787Z,21.89
2018-06-22T04:15:39.985Z,21.90
2018-06-22T04:18:10.673Z,22.04
2018-06-22T04:20:43.361Z,22.17
2018-06-22T04:23:14.509Z,22.12
2018-06-22T04:25:44.134Z,21.95
2018-06-22T04:28:14.112Z,21.70
2018-06-22T04:30:45.737Z,21.77
2018-06-22T04:33:16.822Z,21.47
2018-06-22T04:35:47.477Z,21.43
2018-06-22T04:38:17.971Z,21.25
2018-06-22T04:40:47.684Z,21.30
2018-06-22T04:43:17.333Z,21.46
2018-06-22T04:45:47.628Z,21.57
2018-06-22T04:48:17.221Z,21.52
2018-06-22T04:50:46.812Z,21.18
2018-06-22T04:53:16.512Z,21.11
2018-06-22T04:55:46.144Z,20.90
2018-06-22T04:58:15.780Z,20.82
2018-06-22T05:00:45.399Z,21.09
2018-06-22T05:03:14.998Z,21.12
2018-06-22T05:05:44.647Z,21.23
2018-06-22T05:08:14.316Z,21.25
2018-06-22T05:10:44.105Z,21.16
2018-06-22T05:13:13.794Z,21.10
2018-06-22T05:15:43.480Z,21.17
2018-06-22T05:18:13.037Z,21.30
2018-06-22T05:20:42.870Z,21.30
2018-06-22T05:23:12.770Z,21.13
2018-06-22T05:25:44.284Z,21.26
2018-06-22T05:28:14.284Z,21.16
2018-06-22T05:30:46.114Z,20.99
2018-06-22T05:33:15.981Z,20.93
2018-06-22T05:35:45.704Z,20.80
2018-06-22T05:38:15.372Z,20.56
2018-06-22T05:40:45.073Z,20.72
2018-06-22T05:43:23.689Z,20.82
2018-06-22T05:45:53.426Z,20.95
2018-06-22T05:48:23.068Z,20.81
2018-06-22T05:50:52.861Z,20.50
2018-06-22T05:53:22.436Z,20.48
2018-06-22T05:55:52.232Z,20.65
2018-06-22T05:58:21.970Z,20.70
2018-06-22T06:00:52.687Z,20.79
2018-06-22T06:03:23.585Z,20.94
2018-06-22T06:05:53.301Z,20.85
2018-06-22T06:08:23.053Z,20.66
2018-06-22T06:10:52.888Z,20.69
2018-06-22T06:13:22.705Z,20.65
2018-06-22T06:15:52.284Z,20.76
2018-06-22T06:18:22.146Z,20.52
2018-06-22T06:20:52.035Z,20.54
2018-06-22T06:23:21.760Z,20.51
2018-06-22T06:25:51.628Z,20.12
2018-06-22T06:28:21.281Z,20.08
2018-06-22T06:30:50.959Z,20.08
2018-06-22T06:33:20.588Z,19.73
2018-06-22T06:35:50.320Z,19.74
2018-06-22T06:38:20.045Z,20.07
2018-06-22T06:40:49.950Z,20.28
2018-06-22T06:43:19.627Z,20.45
2018-06-22T06:45:49.355Z,20.43
2018-06-22T06:50:54.642Z,20.20
2018-06-22T06:53:24.253Z,20.48
2018-06-22T06:55:53.912Z,20.81
2018-06-22T06:58:23.653Z,20.90
2018-06-22T07:00:53.293Z,20.39
2018-06-22T07:05:58.520Z,20.18
2018-06-22T07:08:28.265Z,20.47
2018-06-22T07:10:57.904Z,20.39
2018-06-22T07:13:27.588Z,20.19
2018-06-22T07:15:57.357Z,19.92
2018-06-22T07:18:30.852Z,19.86
2018-06-22T07:21:00.527Z,19.89
2018-06-22T07:23:30.876Z,20.01
2018-06-22T07:26:00.547Z,20.07
2018-06-22T07:28:30.411Z,20.12
2018-06-22T07:31:00.147Z,20.39
2018-06-22T07:33:29.936Z,20.37
2018-06-22T07:35:59.578Z,20.52
2018-06-22T07:38:29.154Z,20.79
2018-06-22T07:41:02.429Z,20.66
2018-06-22T07:43:32.420Z,20.72
2018-06-22T07:46:02.273Z,20.58
2018-06-22T07:48:31.961Z,20.52
2018-06-22T07:51:01.962Z,20.45
2018-06-22T07:53:31.672Z,20.66
2018-06-22T07:56:01.420Z,20.92
2018-06-22T07:58:31.629Z,20.71
2018-06-22T08:03:36.389Z,20.76
2018-06-22T08:06:06.161Z,20.89
2018-06-22T08:08:35.879Z,20.88
2018-06-22T08:11:07.527Z,20.81
2018-06-22T08:13:37.162Z,20.66
2018-06-22T08:16:06.764Z,20.31
2018-06-22T08:18:36.458Z,20.34
2018-06-22T08:21:06.664Z,20.29
2018-06-22T08:23:36.464Z,20.65
2018-06-22T08:26:06.167Z,20.85
2018-06-22T08:28:35.860Z,20.78
2018-06-22T08:33:40.184Z,20.49
2018-06-22T08:36:09.794Z,20.33
2018-06-22T08:38:39.450Z,20.41
2018-06-22T08:41:13.195Z,20.44
2018-06-22T08:43:43.016Z,20.23
2018-06-22T08:46:12.876Z,20.24
2018-06-22T08:48:42.631Z,20.36
2018-06-22T08:51:12.429Z,20.42
2018-06-22T08:53:42.161Z,20.56
2018-06-22T08:56:11.849Z,20.25
2018-06-22T08:58:41.704Z,20.10
2018-06-22T09:01:11.358Z,20.18
2018-06-22T09:03:41.068Z,20.29
2018-06-22T09:06:10.723Z,20.11
2018-06-22T09:08:40.421Z,19.96
2018-06-22T09:11:10.240Z,19.66
2018-06-22T09:13:39.980Z,19.59
2018-06-22T09:16:09.637Z,19.87
2018-06-22T09:18:39.379Z,19.95
2018-06-22T09:21:09.002Z,19.56
2018-06-22T09:23:38.636Z,19.42
2018-06-22T09:26:08.428Z,19.51
2018-06-22T09:28:38.224Z,19.67
2018-06-22T09:33:43.717Z,19.69
2018-06-22T09:36:13.446Z,19.67
2018-06-22T09:41:18.980Z,19.84
2018-06-22T09:43:48.708Z,20.17
2018-06-22T09:46:18.430Z,20.48
2018-06-22T09:48:48.157Z,20.18
2018-06-22T09:51:17.882Z,20.06
2018-06-22T09:53:47.651Z,20.05
2018-06-22T09:56:17.392Z,20.16
2018-06-22T09:58:47.215Z,20.22
2018-06-22T10:01:18.692Z,20.14
2018-06-22T10:03:48.348Z,20.22
2018-06-22T10:06:17.966Z,20.53
2018-06-22T10:11:22.633Z,20.57
2018-06-22T10:13:52.459Z,20.98
2018-06-22T10:16:22.082Z,21.53
2018-06-22T10:18:51.824Z,21.86
2018-06-22T10:21:21.708Z,22.22
2018-06-22T10:23:53.203Z,22.19
2018-06-22T10:26:22.863Z,22.02
2018-06-22T10:28:52.624Z,22.26
2018-06-22T10:31:22.272Z,22.21
2018-06-22T10:33:51.961Z,21.97
2018-06-22T10:36:21.507Z,22.08
2018-06-22T10:38:51.149Z,22.50
2018-06-22T10:41:20.931Z,22.28
2018-06-22T10:43:50.700Z,22.38
2018-06-22T10:46:20.384Z,22.69
2018-06-22T10:48:50.121Z,23.62
2018-06-22T10:51:19.872Z,23.89
2018-06-22T10:53:49.580Z,23.75
2018-06-22T10:56:19.211Z,23.01
2018-06-22T10:58:48.883Z,22.60
2018-06-22T11:01:18.536Z,23.22
2018-06-22T11:03:48.226Z,23.49
2018-06-22T11:06:17.906Z,23.53
2018-06-22T11:08:47.555Z,23.72
2018-06-22T11:13:52.938Z,23.37
2018-06-22T11:16:24.366Z,23.29
2018-06-22T11:18:53.987Z,23.48
2018-06-22T11:21:23.860Z,23.74
2018-06-22T11:23:53.552Z,23.38
2018-06-22T11:26:23.446Z,23.18
2018-06-22T11:28:53.076Z,23.73
2018-06-22T11:31:23.001Z,23.78
2018-06-22T11:33:52.725Z,23.43
2018-06-22T11:36:22.498Z,23.59
2018-06-22T11:41:26.892Z,24.17
2018-06-22T11:43:56.620Z,23.65
2018-06-22T11:46:26.470Z,23.61
2018-06-22T11:48:56.449Z,23.44
2018-06-22T11:51:26.143Z,23.45
2018-06-22T11:53:55.964Z,23.57
2018-06-22T11:56:25.646Z,23.78
2018-06-22T11:58:55.269Z,23.70
2018-06-22T12:01:24.996Z,24.07
2018-06-22T12:03:54.742Z,24.46
2018-06-22T12:06:24.397Z,24.16
2018-06-22T12:08:54.361Z,23.35
2018-06-22T12:11:24.167Z,23.39
2018-06-22T12:13:53.781Z,24.34
2018-06-22T12:16:26.685Z,24.68
2018-06-22T12:18:56.462Z,24.70
2018-06-22T12:21:28.265Z,24.40
2018-06-22T12:23:58.169Z,24.63
2018-06-22T12:26:28.888Z,24.45
2018-06-22T12:29:00.339Z,23.52
2018-06-22T12:31:30.830Z,23.57
2018-06-22T12:34:07.247Z,23.56
2018-06-22T12:36:39.436Z,23.43
2018-06-22T12:39:12.608Z,24.10
2018-06-22T12:41:44.357Z,24.61
2018-06-22T12:44:17.448Z,24.34
2018-06-22T12:46:48.807Z,24.77
2018-06-22T12:49:19.338Z,24.58
2018-06-22T12:51:49.742Z,24.57
2018-06-22T12:54:24.422Z,24.39
2018-06-22T12:56:56.657Z,24.08
2018-06-22T12:59:28.257Z,23.95
2018-06-22T13:01:58.548Z,24.30
2018-06-22T13:04:28.652Z,23.73
2018-06-22T13:06:59.107Z,23.02
2018-06-22T13:09:28.919Z,22.80
2018-06-22T13:14:34.552Z,23.00
2018-06-22T13:17:05.732Z,23.00
2018-06-22T13:19:35.654Z,23.33
2018-06-22T13:22:06.309Z,23.39
2018-06-22T13:24:36.123Z,23.39
2018-06-22T13:27:06.036Z,23.36
2018-06-22T13:29:35.829Z,23.61
2018-06-22T13:32:05.533Z,23.13
2018-06-22T13:34:35.140Z,23.49
2018-06-22T13:37:05.231Z,23.46
2018-06-22T13:42:12.645Z,23.11
2018-06-22T13:44:44.159Z,23.34
2018-06-22T13:47:14.227Z,23.42
2018-06-22T13:49:45.856Z,23.67
2018-06-22T13:52:21.708Z,24.19
2018-06-22T13:54:53.994Z,24.87
2018-06-22T13:57:26.648Z,24.65
2018-06-22T13:59:56.445Z,24.47
2018-06-22T14:02:27.569Z,24.47
2018-06-22T14:05:03.151Z,24.45
2018-06-22T14:07:33.745Z,24.72
2018-06-22T14:10:06.929Z,24.69
2018-06-22T14:12:46.475Z,24.79
2018-06-22T14:15:18.965Z,24.85
2018-06-22T14:17:49.328Z,24.77
2018-06-22T14:20:19.851Z,24.50
2018-06-22T14:22:54.273Z,24.67
2018-06-22T14:25:24.450Z,24.51
2018-06-22T14:30:31.459Z,24.15
2018-06-22T14:33:02.403Z,24.17
2018-06-22T14:35:32.567Z,24.00
2018-06-22T14:38:03.373Z,23.97
2018-06-22T14:40:33.616Z,23.80
2018-06-22T14:43:05.262Z,24.07
2018-06-22T14:45:37.452Z,24.24
2018-06-22T14:48:07.940Z,24.22
2018-06-22T14:50:37.672Z,24.22
2018-06-22T14:53:13.099Z,23.82
2018-06-22T14:55:48.080Z,24.06
2018-06-22T14:58:23.187Z,24.29
2018-06-22T15:00:58.254Z,24.38
2018-06-22T15:03:33.640Z,24.59
2018-06-22T15:06:08.809Z,24.38
2018-06-22T15:08:38.444Z,24.10
2018-06-22T15:11:08.296Z,24.07
2018-06-22T15:13:37.999Z,24.17
2018-06-22T15:16:07.860Z,23.89
2018-06-22T15:18:37.547Z,24.10
2018-06-22T15:21:07.576Z,24.14
2018-06-22T15:23:37.573Z,24.32
2018-06-22T15:26:07.204Z,24.04
2018-06-22T15:28:37.332Z,23.81
2018-06-22T15:31:07.656Z,23.72
2018-06-22T15:33:42.708Z,23.64
2018-06-22T15:41:04.700Z,24.20
2018-06-22T15:43:39.608Z,24.37
2018-06-22T15:46:14.615Z,24.00
2018-06-22T15:48:49.889Z,23.45
2018-06-22T15:51:24.863Z,23.75
2018-06-22T15:53:59.738Z,23.89
2018-06-22T15:56:29.480Z,23.96
2018-06-22T15:59:05.916Z,23.54
2018-06-22T16:01:36.876Z,23.16
2018-06-22T16:04:10.605Z,22.26
2018-06-22T16:09:19.407Z,22.70
2018-06-22T16:11:50.044Z,23.16
2018-06-22T16:14:24.871Z,23.62
2018-06-22T16:17:00.254Z,23.77
2018-06-22T16:19:35.075Z,23.41
2018-06-22T16:22:09.977Z,23.22
2018-06-22T16:26:45.765Z,23.41
2018-06-22T16:29:15.638Z,22.69
2018-06-22T16:31:45.578Z,22.66
2018-06-22T16:34:15.314Z,22.42
2018-06-22T16:36:45.020Z,22.33
2018-06-22T16:39:15.046Z,22.26
2018-06-22T16:41:44.778Z,22.31
2018-06-22T16:44:14.743Z,22.63
2018-06-22T16:46:44.860Z,22.17
2018-06-22T16:49:14.647Z,22.08
2018-06-22T16:51:44.375Z,22.26
2018-06-22T16:54:14.089Z,22.18
2018-06-22T16:56:43.752Z,22.09
2018-06-22T16:59:13.483Z,21.93
2018-06-22T17:01:43.165Z,21.86
2018-06-22T17:04:15.326Z,22.31
2018-06-22T17:06:50.432Z,22.65
2018-06-22T17:09:25.303Z,22.46
2018-06-22T17:12:01.722Z,22.91
2018-06-22T17:14:36.680Z,23.20
2018-06-22T17:17:11.620Z,24.14
2018-06-22T17:19:41.364Z,24.53
2018-06-22T17:22:11.194Z,24.67
2018-06-22T17:24:41.094Z,24.13
2018-06-22T17:27:11.316Z,23.96
2018-06-22T17:32:16.604Z,23.18
2018-06-22T17:34:46.314Z,22.96
2018-06-22T17:37:15.999Z,22.81
2018-06-22T17:39:45.735Z,22.62
2018-06-22T17:42:15.452Z,22.43
2018-06-22T17:44:45.137Z,22.45
2018-06-22T17:47:14.868Z,22.66
2018-06-22T17:49:44.729Z,22.64
2018-06-22T17:52:14.541Z,22.77
2018-06-22T17:54:44.213Z,22.51
2018-06-22T17:57:13.965Z,22.20
2018-06-22T17:59:48.849Z,22.23
2018-06-22T18:02:23.525Z,21.89
2018-06-22T18:04:58.836Z,21.71
2018-06-22T18:07:33.787Z,21.51
2018-06-22T18:10:08.614Z,21.27
2018-06-22T18:12:43.412Z,21.55
2018-06-22T18:15:12.957Z,21.48
2018-06-22T18:17:42.548Z,21.25
2018-06-22T18:20:12.281Z,20.89
2018-06-22T18:22:41.986Z,20.80
2018-06-22T18:25:12.245Z,20.31
2018-06-22T18:27:41.961Z,20.19
2018-06-22T18:30:15.710Z,20.47
2018-06-22T18:32:45.477Z,20.41
2018-06-22T18:35:15.886Z,20.55
2018-06-22T18:37:53.301Z,20.38
2018-06-22T18:40:25.604Z,20.49
2018-06-22T18:42:59.151Z,20.20
2018-06-22T18:45:30.610Z,20.09
2018-06-22T18:48:09.913Z,20.79
2018-06-22T18:50:40.755Z,20.56
2018-06-22T18:53:16.252Z,20.41
2018-06-22T18:55:53.000Z,20.17
2018-06-22T18:58:31.583Z,20.13
2018-06-22T19:01:07.587Z,19.97
2018-06-22T19:03:42.649Z,20.02
2018-06-22T19:06:12.301Z,19.76
2018-06-22T19:08:41.965Z,19.55
2018-06-22T19:11:11.728Z,19.53
2018-06-22T19:13:41.719Z,19.68
2018-06-22T19:16:11.416Z,19.10
2018-06-22T19:18:41.075Z,19.25
2018-06-22T19:21:10.831Z,19.37
2018-06-22T19:23:40.456Z,18.94
2018-06-22T19:26:10.178Z,18.85
2018-06-22T19:28:39.840Z,18.96
2018-06-22T19:31:09.440Z,18.72
2018-06-22T19:33:39.086Z,18.55
2018-06-22T19:36:08.701Z,18.37
2018-06-22T19:38:38.394Z,18.51
2018-06-22T19:41:08.029Z,18.96
2018-06-22T19:43:43.074Z,18.85
2018-06-22T19:46:17.950Z,18.88
2018-06-22T19:48:52.879Z,18.54
2018-06-22T19:51:27.651Z,18.73
2018-06-22T19:56:39.688Z,18.22
2018-06-22T19:59:09.295Z,18.40
2018-06-22T20:01:38.918Z,18.45
2018-06-22T20:04:08.563Z,18.72
2018-06-22T20:06:38.345Z,18.68
2018-06-22T20:09:10.954Z,18.61
2018-06-22T20:11:40.893Z,18.76
2018-06-22T20:14:10.610Z,18.68
2018-06-22T20:16:41.080Z,18.64
2018-06-22T20:19:11.717Z,18.59
2018-06-22T20:21:42.099Z,18.48
2018-06-22T20:24:12.038Z,18.59
2018-06-22T20:26:41.784Z,18.56
2018-06-22T20:29:12.344Z,18.29
2018-06-22T20:31:42.076Z,18.15
2018-06-22T20:34:16.859Z,18.06
2018-06-22T20:36:51.674Z,17.93
2018-06-22T20:40:24.688Z,17.78
2018-06-22T20:42:56.448Z,17.72
2018-06-22T20:45:31.807Z,17.55
2018-06-22T20:48:07.491Z,17.43
2018-06-22T20:50:38.012Z,17.48
2018-06-22T20:53:08.513Z,17.62
2018-06-22T20:55:42.034Z,17.72
2018-06-22T20:58:11.781Z,17.43
2018-06-22T21:00:41.389Z,17.45
2018-06-22T21:03:14.619Z,17.82
2018-06-22T21:05:44.406Z,17.48
2018-06-22T21:08:13.978Z,17.38
2018-06-22T21:10:43.829Z,17.07
2018-06-22T21:13:13.632Z,16.78
2018-06-22T21:15:43.119Z,16.60
2018-06-22T21:18:16.876Z,16.98
2018-06-22T21:20:53.482Z,17.42
2018-06-22T21:23:23.229Z,17.71
2018-06-22T21:25:53.561Z,17.30
2018-06-22T21:28:29.051Z,17.12
2018-06-22T21:31:04.625Z,17.11
2018-06-22T21:33:39.561Z,16.90
2018-06-22T21:36:15.334Z,16.50
2018-06-22T21:38:50.148Z,16.70
2018-06-22T21:41:19.861Z,16.50
2018-06-22T21:43:49.489Z,16.51
2018-06-22T21:46:19.195Z,16.73
2018-06-22T21:48:50.508Z,16.64
2018-06-22T21:51:20.117Z,16.84
2018-06-22T21:53:49.824Z,16.78
2018-06-22T21:56:19.506Z,16.74
2018-06-22T21:58:50.112Z,16.68
2018-06-22T22:01:20.470Z,16.83
2018-06-22T22:03:50.312Z,17.11
2018-06-22T22:06:19.971Z,16.82
2018-06-22T22:08:49.841Z,16.99
2018-06-22T22:11:19.484Z,16.96
2018-06-22T22:13:49.087Z,16.64
2018-06-22T22:16:18.787Z,16.82
2018-06-22T22:18:48.453Z,16.89
2018-06-22T22:21:18.228Z,16.69
2018-06-22T22:23:48.581Z,16.45
2018-06-22T22:26:18.707Z,16.32
2018-06-22T22:28:48.417Z,16.17
2018-06-22T22:31:18.126Z,16.39
2018-06-22T22:33:47.767Z,16.24
2018-06-22T22:36:17.352Z,15.97
2018-06-22T22:38:47.039Z,16.45
2018-06-22T22:41:16.845Z,16.28
2018-06-22T22:43:46.524Z,16.22
2018-06-22T22:46:16.185Z,16.48
2018-06-22T22:48:45.931Z,16.19
2018-06-22T22:51:15.768Z,15.91
2018-06-22T22:53:45.502Z,16.01
2018-06-22T22:56:15.395Z,16.25
2018-06-22T22:58:44.998Z,16.14
2018-06-22T23:01:14.939Z,16.24
2018-06-22T23:03:44.704Z,16.09
2018-06-22T23:06:14.494Z,16.06
2018-06-22T23:08:44.197Z,16.37
2018-06-22T23:11:14.879Z,16.43
2018-06-22T23:13:44.680Z,16.28
2018-06-22T23:16:14.536Z,16.10
2018-06-22T23:18:44.247Z,15.94
2018-06-22T23:21:14.098Z,15.38
2018-06-22T23:23:43.708Z,15.87
2018-06-22T23:26:14.411Z,15.67
2018-06-22T23:28:44.024Z,15.49
2018-06-22T23:31:13.647Z,15.72
2018-06-22T23:33:43.402Z,15.85
2018-06-22T23:36:13.273Z,15.53
2018-06-22T23:38:42.984Z,14.83
2018-06-22T23:41:12.629Z,15.29
2018-06-22T23:43:42.967Z,15.35
2018-06-22T23:46:12.723Z,15.53
2018-06-22T23:48:42.376Z,15.56
2018-06-22T23:51:12.653Z,15.24
2018-06-22T23:53:42.465Z,15.03
2018-06-22T23:56:14.032Z,15.10
2018-06-22T23:58:43.851Z,15.39
